createdAt,value
2023-04-24T00:00:41.816Z,66.27
2023-04-24T00:03:44.704Z,65.58
2023-04-24T00:06:50.626Z,65.30
2023-04-24T00:09:53.254Z,64.70
2023-04-24T00:12:55.844Z,65.44
2023-04-24T00:15:58.609Z,65.17
2023-04-24T00:19:01.808Z,64.92
2023-04-24T00:22:06.241Z,65.03
2023-04-24T00:25:09.541Z,64.23
2023-04-24T00:28:12.012Z,64.17
2023-04-24T00:31:14.566Z,63.43
2023-04-24T00:34:17.111Z,63.06
2023-04-24T00:37:21.516Z,63.33
2023-04-24T00:40:24.342Z,62.56
2023-04-24T00:43:26.943Z,61.60
2023-04-24T00:46:29.644Z,62.25
2023-04-24T00:49:32.373Z,61.33
2023-04-24T00:52:36.926Z,61.85
2023-04-24T00:55:39.646Z,60.79
2023-04-24T00:58:42.675Z,61.33
2023-04-24T01:01:45.904Z,61.10
2023-04-24T01:04:48.513Z,61.11
2023-04-24T01:07:52.473Z,61.37
2023-04-24T01:10:55.138Z,61.13
2023-04-24T01:13:59.832Z,61.91
2023-04-24T01:17:02.407Z,62.34
2023-04-24T01:20:06.982Z,62.11
2023-04-24T01:23:11.378Z,62.09
2023-04-24T01:26:15.355Z,62.02
2023-04-24T01:29:18.232Z,62.26
2023-04-24T01:32:21.019Z,62.70
2023-04-24T01:35:23.794Z,64.05
2023-04-24T01:38:27.736Z,64.76
2023-04-24T01:41:30.471Z,66.18
2023-04-24T01:44:33.148Z,66.81
2023-04-24T01:47:35.829Z,66.28
2023-04-24T01:50:38.390Z,66.16
2023-04-24T01:53:42.278Z,65.80
2023-04-24T01:56:45.430Z,66.95
2023-04-24T01:59:47.991Z,67.20
2023-04-24T02:02:50.966Z,66.71
2023-04-24T02:05:53.689Z,67.32
2023-04-24T02:08:57.616Z,66.86
2023-04-24T02:12:00.190Z,66.58
2023-04-24T02:15:02.726Z,66.44
2023-04-24T02:18:05.385Z,66.20
2023-04-24T02:21:08.016Z,65.67
2023-04-24T02:24:11.851Z,66.26
2023-04-24T02:27:14.547Z,66.33
2023-04-24T02:30:17.075Z,65.73
2023-04-24T02:33:19.660Z,65.29
2023-04-24T02:36:22.244Z,64.91
2023-04-24T02:39:26.166Z,65.44
2023-04-24T02:42:28.758Z,65.17
2023-04-24T02:45:31.352Z,64.83
2023-04-24T02:48:34.004Z,66.75
2023-04-24T02:51:39.114Z,69.55
2023-04-24T02:54:42.963Z,71.44
2023-04-24T02:57:45.501Z,71.80
2023-04-24T03:00:48.270Z,72.89
2023-04-24T03:03:51.078Z,73.60
2023-04-24T03:06:55.702Z,74.85
2023-04-24T03:10:00.357Z,73.38
2023-04-24T03:13:02.915Z,74.37
2023-04-24T03:16:05.839Z,75.20
2023-04-24T03:19:08.378Z,75.21
2023-04-24T03:22:10.993Z,75.52
2023-04-24T03:25:15.070Z,75.47
2023-04-24T03:28:17.587Z,75.25
2023-04-24T03:31:20.199Z,75.01
2023-04-24T03:34:22.762Z,75.00
2023-04-24T03:37:25.558Z,75.12
2023-04-24T03:40:30.622Z,74.12
2023-04-24T03:43:36.211Z,74.41
2023-04-24T03:46:39.063Z,73.56
2023-04-24T03:49:46.084Z,73.63
2023-04-24T03:52:48.734Z,73.06
2023-04-24T03:55:55.966Z,73.72
2023-04-24T03:58:58.518Z,73.46
2023-04-24T04:02:01.732Z,73.42
2023-04-24T04:05:04.864Z,72.38
2023-04-24T04:08:07.946Z,72.13
2023-04-24T04:11:11.966Z,72.65
2023-04-24T04:14:14.918Z,72.01
2023-04-24T04:17:18.615Z,70.67
2023-04-24T04:20:23.223Z,70.70
2023-04-24T04:23:25.915Z,69.95
2023-04-24T04:26:38.748Z,70.06
2023-04-24T04:29:42.205Z,72.18
2023-04-24T04:32:44.821Z,75.65
2023-04-24T04:35:49.594Z,78.32
2023-04-24T04:38:52.134Z,78.27
2023-04-24T04:41:56.177Z,77.42
2023-04-24T04:44:59.125Z,77.50
2023-04-24T04:48:03.200Z,78.20
2023-04-24T04:51:06.444Z,75.44
2023-04-24T04:54:09.129Z,75.20
2023-04-24T04:57:13.654Z,74.21
2023-04-24T05:00:17.078Z,75.49
2023-04-24T05:03:21.632Z,75.14
2023-04-24T05:06:24.747Z,74.68
2023-04-24T05:09:28.307Z,73.54
2023-04-24T05:12:32.325Z,73.67
2023-04-24T05:15:35.931Z,71.51
2023-04-24T05:18:38.641Z,71.37
2023-04-24T05:21:41.512Z,70.15
2023-04-24T05:24:44.135Z,69.18
2023-04-24T05:27:48.160Z,68.85
2023-04-24T05:30:51.251Z,68.43
2023-04-24T05:33:53.893Z,68.13
2023-04-24T05:36:56.513Z,67.60
2023-04-24T05:39:59.506Z,67.14
2023-04-24T05:43:03.782Z,66.35
2023-04-24T05:46:06.853Z,66.55
2023-04-24T05:49:09.506Z,65.97
2023-04-24T05:52:12.193Z,66.95
2023-04-24T05:55:14.817Z,66.78
2023-04-24T05:58:19.018Z,65.41
2023-04-24T06:01:21.779Z,65.74
2023-04-24T06:04:25.766Z,65.97
2023-04-24T06:07:28.781Z,66.27
2023-04-24T06:10:31.520Z,65.08
2023-04-24T06:13:35.520Z,66.97
2023-04-24T06:16:39.944Z,67.21
2023-04-24T06:19:42.813Z,66.70
2023-04-24T06:22:45.674Z,65.97
2023-04-24T06:25:48.322Z,65.68
2023-04-24T06:28:52.382Z,64.08
2023-04-24T06:31:54.967Z,62.72
2023-04-24T06:34:59.085Z,62.33
2023-04-24T06:38:02.183Z,60.53
2023-04-24T06:41:06.204Z,60.42
2023-04-24T06:44:10.334Z,58.49
2023-04-24T06:47:14.492Z,58.10
2023-04-24T06:50:17.196Z,56.80
2023-04-24T06:53:19.831Z,55.44
2023-04-24T06:56:22.657Z,54.91
2023-04-24T06:59:26.760Z,54.84
2023-04-24T07:02:29.701Z,54.08
2023-04-24T07:05:35.138Z,53.51
2023-04-24T07:08:37.900Z,51.05
2023-04-24T07:11:41.711Z,50.85
2023-04-24T07:14:45.741Z,51.39
2023-04-24T07:17:48.721Z,53.22
2023-04-24T07:20:52.110Z,54.40
2023-04-24T07:23:54.941Z,54.37
2023-04-24T07:26:57.996Z,53.38
2023-04-24T07:30:02.189Z,52.83
2023-04-24T07:33:05.055Z,49.58
2023-04-24T07:36:08.015Z,48.82
2023-04-24T07:39:10.887Z,47.86
2023-04-24T07:42:13.700Z,46.98
2023-04-24T07:45:17.945Z,45.74
2023-04-24T07:48:22.557Z,43.55
2023-04-24T07:51:25.229Z,43.22
2023-04-24T07:54:27.855Z,43.85
2023-04-24T07:57:30.514Z,44.40
2023-04-24T08:00:35.118Z,43.55
2023-04-24T08:03:38.045Z,43.07
2023-04-24T08:06:40.853Z,44.28
2023-04-24T08:09:43.607Z,43.96
2023-04-24T08:12:46.466Z,43.99
2023-04-24T08:15:50.700Z,45.41
2023-04-24T08:18:53.733Z,44.44
2023-04-24T08:21:56.674Z,44.44
2023-04-24T08:25:01.845Z,44.73
2023-04-24T08:28:05.307Z,44.34
2023-04-24T08:31:09.359Z,44.10
2023-04-24T08:34:12.426Z,43.67
2023-04-24T08:37:15.686Z,44.55
2023-04-24T08:40:19.096Z,43.79
2023-04-24T08:43:23.866Z,41.93
2023-04-24T08:46:28.196Z,42.55
2023-04-24T08:49:31.359Z,43.39
2023-04-24T08:52:34.819Z,43.63
2023-04-24T08:55:37.739Z,44.98
2023-04-24T08:58:41.179Z,44.21
2023-04-24T09:01:46.151Z,43.23
2023-04-24T09:04:49.550Z,41.74
2023-04-24T09:07:58.227Z,43.72
2023-04-24T09:11:03.666Z,44.06
2023-04-24T09:14:06.584Z,45.23
2023-04-24T09:17:10.727Z,47.14
2023-04-24T09:20:13.458Z,49.52
2023-04-24T09:23:19.808Z,51.88
2023-04-24T09:26:26.234Z,52.03
2023-04-24T09:29:29.398Z,53.39
2023-04-24T09:32:33.683Z,52.89
2023-04-24T09:35:36.389Z,54.05
2023-04-24T09:38:40.138Z,55.59
2023-04-24T09:41:46.651Z,55.36
2023-04-24T09:44:56.981Z,53.01
2023-04-24T09:48:11.341Z,48.98
2023-04-24T09:51:16.209Z,46.47
2023-04-24T09:54:22.103Z,45.52
2023-04-24T09:57:25.516Z,44.66
2023-04-24T10:00:29.692Z,43.96
2023-04-24T10:03:34.267Z,41.92
2023-04-24T10:06:37.693Z,41.49
2023-04-24T10:09:40.455Z,41.93
2023-04-24T10:12:43.364Z,41.23
2023-04-24T10:15:46.258Z,42.36
2023-04-24T10:18:50.741Z,42.51
2023-04-24T10:21:53.534Z,41.56
2023-04-24T10:24:56.168Z,39.32
2023-04-24T10:28:00.820Z,37.97
2023-04-24T10:31:03.753Z,36.77
2023-04-24T10:34:08.432Z,35.08
2023-04-24T10:37:11.119Z,34.11
2023-04-24T10:40:19.192Z,36.78
2023-04-24T10:43:21.917Z,37.49
2023-04-24T10:46:24.578Z,38.60
2023-04-24T10:49:32.047Z,38.91
2023-04-24T10:52:46.200Z,38.50
2023-04-24T10:55:51.248Z,38.44
2023-04-24T10:58:55.480Z,37.53
2023-04-24T11:01:58.102Z,37.11
2023-04-24T11:05:05.254Z,37.42
2023-04-24T11:08:15.653Z,38.08
2023-04-24T11:11:21.879Z,38.73
2023-04-24T11:14:24.549Z,38.69
2023-04-24T11:17:34.588Z,39.29
2023-04-24T11:20:38.851Z,39.01
2023-04-24T11:23:41.880Z,37.68
2023-04-24T11:26:44.580Z,36.29
2023-04-24T11:29:49.534Z,35.06
2023-04-24T11:32:53.536Z,34.74
2023-04-24T11:35:57.600Z,34.43
2023-04-24T11:39:00.487Z,33.75
2023-04-24T11:42:04.955Z,33.23
2023-04-24T11:45:11.631Z,33.97
2023-04-24T11:48:14.234Z,36.29
2023-04-24T11:51:18.548Z,38.96
2023-04-24T11:54:21.334Z,40.62
2023-04-24T11:57:27.516Z,39.57
2023-04-24T12:00:31.514Z,40.73
2023-04-24T12:03:34.425Z,37.65
2023-04-24T12:06:38.539Z,36.71
2023-04-24T12:09:47.622Z,34.22
2023-04-24T12:12:52.321Z,33.56
2023-04-24T12:15:55.064Z,34.38
2023-04-24T12:19:01.291Z,37.10
2023-04-24T12:22:07.454Z,38.42
2023-04-24T12:25:12.625Z,39.58
2023-04-24T12:28:15.583Z,39.49
2023-04-24T12:31:18.992Z,37.95
2023-04-24T12:34:22.309Z,38.90
2023-04-24T12:37:27.611Z,37.77
2023-04-24T12:40:32.578Z,38.91
2023-04-24T12:43:53.452Z,37.41
2023-04-24T12:46:56.222Z,36.33
2023-04-24T12:49:59.289Z,36.10
2023-04-24T12:53:02.224Z,36.60
2023-04-24T12:56:05.289Z,38.83
2023-04-24T12:59:09.314Z,40.06
2023-04-24T13:02:12.238Z,41.07
2023-04-24T13:05:15.037Z,41.30
2023-04-24T13:08:17.715Z,43.74
2023-04-24T13:11:20.334Z,48.97
2023-04-24T13:14:24.279Z,57.84
2023-04-24T13:17:26.904Z,56.35
2023-04-24T13:20:29.665Z,50.76
2023-04-24T13:23:32.345Z,45.73
2023-04-24T13:26:34.936Z,44.04
2023-04-24T13:29:39.429Z,37.80
2023-04-24T13:32:42.364Z,35.35
2023-04-24T13:35:45.147Z,40.29
2023-04-24T13:38:47.736Z,42.43
2023-04-24T13:41:50.510Z,44.34
2023-04-24T13:44:55.078Z,46.80
2023-04-24T13:47:58.009Z,46.89
2023-04-24T13:51:00.720Z,47.99
2023-04-24T13:54:03.343Z,52.34
2023-04-24T13:57:06.118Z,60.50
2023-04-24T14:00:11.784Z,64.73
2023-04-24T14:03:14.686Z,65.54
2023-04-24T14:06:17.624Z,62.42
2023-04-24T14:09:20.801Z,47.11
2023-04-24T14:12:23.639Z,38.32
2023-04-24T14:15:27.669Z,31.99
2023-04-24T14:18:30.327Z,28.78
2023-04-24T14:21:33.168Z,33.38
2023-04-24T14:24:35.976Z,27.63
2023-04-24T14:27:38.769Z,25.61
2023-04-24T14:30:42.910Z,28.87
2023-04-24T14:33:45.732Z,25.72
2023-04-24T14:36:48.539Z,23.03
2023-04-24T14:40:05.592Z,24.57
2023-04-24T14:43:13.936Z,26.93
2023-04-24T14:46:18.393Z,23.14
2023-04-24T14:49:21.133Z,29.69
2023-04-24T14:52:23.999Z,33.57
2023-04-24T14:55:27.135Z,34.68
2023-04-24T14:58:29.946Z,32.16
2023-04-24T15:01:33.997Z,28.59
2023-04-24T15:04:38.257Z,25.37
2023-04-24T15:07:42.473Z,20.46
2023-04-24T15:10:45.664Z,24.85
2023-04-24T15:13:48.504Z,34.20
2023-04-24T15:16:52.826Z,38.80
2023-04-24T15:19:55.610Z,41.04
2023-04-24T15:23:00.329Z,43.43
2023-04-24T15:26:03.345Z,43.13
2023-04-24T15:29:06.120Z,44.17
2023-04-24T15:32:10.572Z,44.85
2023-04-24T15:35:13.418Z,44.56
2023-04-24T15:38:16.368Z,45.76
2023-04-24T15:41:19.078Z,52.14
2023-04-24T15:44:22.413Z,58.69
2023-04-24T15:47:27.096Z,58.86
2023-04-24T15:50:29.766Z,57.36
2023-04-24T15:53:32.636Z,53.73
2023-04-24T15:56:37.047Z,54.80
2023-04-24T15:59:39.940Z,54.08
2023-04-24T16:02:44.083Z,43.95
2023-04-24T16:05:46.932Z,29.00
2023-04-24T16:08:49.911Z,22.70
2023-04-24T16:11:52.916Z,24.14
2023-04-24T16:14:55.833Z,21.78
2023-04-24T16:17:59.906Z,23.46
2023-04-24T16:21:02.491Z,22.38
2023-04-24T16:24:05.389Z,22.96
2023-04-24T16:27:08.041Z,22.69
2023-04-24T16:30:11.971Z,32.99
2023-04-24T16:33:16.012Z,38.54
2023-04-24T16:36:18.676Z,41.73
2023-04-24T16:39:21.592Z,43.80
2023-04-24T16:42:24.337Z,44.97
2023-04-24T16:45:27.154Z,46.33
2023-04-24T16:48:31.570Z,46.83
2023-04-24T16:51:34.291Z,46.20
2023-04-24T16:54:37.088Z,45.61
2023-04-24T16:57:39.940Z,44.67
2023-04-24T17:00:42.922Z,45.00
2023-04-24T17:03:47.596Z,43.56
2023-04-24T17:06:50.447Z,41.86
2023-04-24T17:09:53.451Z,42.04
2023-04-24T17:12:56.523Z,41.44
2023-04-24T17:15:59.361Z,41.90
2023-04-24T17:19:04.337Z,43.04
2023-04-24T17:22:06.898Z,44.05
2023-04-24T17:25:10.112Z,44.79
2023-04-24T17:28:17.639Z,45.09
2023-04-24T17:31:20.328Z,43.24
2023-04-24T17:34:24.324Z,41.86
2023-04-24T17:37:27.088Z,43.06
2023-04-24T17:40:29.676Z,43.38
2023-04-24T17:43:32.423Z,44.04
2023-04-24T17:46:35.596Z,43.72
2023-04-24T17:49:39.687Z,44.44
2023-04-24T17:52:42.468Z,44.60
2023-04-24T17:55:46.356Z,45.67
2023-04-24T17:58:49.164Z,46.23
2023-04-24T18:01:53.184Z,46.20
2023-04-24T18:04:57.339Z,45.98
2023-04-24T18:08:01.553Z,46.55
2023-04-24T18:11:04.385Z,46.21
2023-04-24T18:14:06.938Z,46.28
2023-04-24T18:17:09.693Z,45.57
2023-04-24T18:20:15.249Z,46.36
2023-04-24T18:23:17.849Z,47.03
2023-04-24T18:26:20.723Z,47.15
2023-04-24T18:29:23.391Z,47.93
2023-04-24T18:32:26.524Z,47.64
2023-04-24T18:35:30.796Z,48.83
2023-04-24T18:38:33.493Z,48.45
2023-04-24T18:41:36.184Z,49.68
2023-04-24T18:44:41.119Z,49.02
2023-04-24T18:47:44.086Z,49.17
2023-04-24T18:50:48.144Z,51.87
2023-04-24T18:53:50.961Z,52.35
2023-04-24T18:56:53.961Z,53.86
2023-04-24T18:59:56.643Z,55.32
2023-04-24T19:02:59.592Z,56.51
2023-04-24T19:06:03.691Z,57.88
2023-04-24T19:09:07.000Z,58.40
2023-04-24T19:12:09.990Z,58.20
2023-04-24T19:15:13.183Z,58.51
2023-04-24T19:18:17.122Z,59.52
2023-04-24T19:21:21.307Z,60.40
2023-04-24T19:24:24.623Z,59.82
2023-04-24T19:27:27.388Z,58.16
2023-04-24T19:30:30.088Z,57.82
2023-04-24T19:33:32.619Z,57.87
2023-04-24T19:36:37.116Z,57.71
2023-04-24T19:39:39.845Z,57.56
2023-04-24T19:42:44.670Z,58.80
2023-04-24T19:45:47.415Z,60.14
2023-04-24T19:48:50.639Z,59.54
2023-04-24T19:51:54.911Z,59.67
2023-04-24T19:54:57.804Z,57.86
2023-04-24T19:58:00.524Z,57.60
2023-04-24T20:01:04.055Z,56.73
2023-04-24T20:04:07.877Z,57.57
2023-04-24T20:07:12.151Z,56.76
2023-04-24T20:10:14.732Z,56.81
2023-04-24T20:13:17.615Z,57.12
2023-04-24T20:16:20.615Z,57.34
2023-04-24T20:19:23.444Z,57.36
2023-04-24T20:22:27.620Z,57.13
2023-04-24T20:25:30.325Z,57.65
2023-04-24T20:28:32.989Z,57.64
2023-04-24T20:31:35.853Z,57.62
2023-04-24T20:34:38.571Z,58.50
2023-04-24T20:37:42.832Z,58.91
2023-04-24T20:40:57.219Z,59.40
2023-04-24T20:44:00.870Z,59.06
2023-04-24T20:47:03.858Z,59.17
2023-04-24T20:50:07.904Z,59.05
2023-04-24T20:53:11.854Z,58.60
2023-04-24T20:56:14.535Z,59.24
2023-04-24T20:59:17.323Z,59.73
2023-04-24T21:02:20.068Z,59.69
2023-04-24T21:05:22.894Z,59.78
2023-04-24T21:08:26.865Z,60.25
2023-04-24T21:11:29.636Z,61.12
2023-04-24T21:14:32.250Z,61.47
2023-04-24T21:17:34.975Z,61.86
2023-04-24T21:20:37.550Z,62.36
2023-04-24T21:23:41.563Z,61.78
2023-04-24T21:26:44.172Z,61.60
2023-04-24T21:29:47.553Z,62.06
2023-04-24T21:32:52.036Z,62.36
2023-04-24T21:35:54.866Z,64.16
2023-04-24T21:38:58.979Z,63.20
2023-04-24T21:42:01.677Z,63.84
2023-04-24T21:45:04.480Z,63.70
2023-04-24T21:48:07.563Z,62.81
2023-04-24T21:51:10.254Z,62.35
2023-04-24T21:54:14.205Z,62.07
2023-04-24T21:57:16.941Z,62.28
2023-04-24T22:00:19.610Z,62.06
2023-04-24T22:03:22.238Z,62.16
2023-04-24T22:06:24.910Z,61.74
2023-04-24T22:09:28.794Z,61.72
2023-04-24T22:12:31.695Z,61.88
2023-04-24T22:15:34.333Z,61.98
2023-04-24T22:18:46.625Z,62.31
2023-04-24T22:21:49.833Z,63.04
2023-04-24T22:24:53.808Z,63.42
2023-04-24T22:27:56.774Z,64.03
2023-04-24T22:30:59.371Z,64.09
2023-04-24T22:34:01.924Z,64.40
2023-04-24T22:37:04.441Z,65.04
2023-04-24T22:40:10.364Z,65.09
2023-04-24T22:43:13.323Z,64.67
2023-04-24T22:46:15.853Z,64.34
2023-04-24T22:49:18.425Z,64.16
2023-04-24T22:52:21.725Z,63.69
2023-04-24T22:55:25.811Z,63.54
2023-04-24T22:58:28.394Z,63.71
2023-04-24T23:01:31.060Z,63.73
2023-04-24T23:04:33.816Z,63.75
2023-04-24T23:07:37.499Z,63.25
2023-04-24T23:10:41.531Z,62.43
2023-04-24T23:13:44.268Z,61.25
2023-04-24T23:16:46.878Z,61.88
2023-04-24T23:19:49.668Z,61.75
2023-04-24T23:22:52.349Z,62.00
2023-04-24T23:25:56.381Z,60.94
2023-04-24T23:28:58.861Z,59.67
2023-04-24T23:32:01.896Z,59.46
2023-04-24T23:35:04.801Z,58.98
2023-04-24T23:38:07.297Z,58.33
2023-04-24T23:41:11.216Z,58.70
2023-04-24T23:44:14.442Z,57.82
2023-04-24T23:47:16.972Z,57.58
2023-04-24T23:50:19.664Z,57.67
2023-04-24T23:53:22.192Z,57.95
2023-04-24T23:56:26.651Z,57.73
2023-04-24T23:59:30.731Z,57.83
